Private Wetterstation Nrnberg - Katzwang
Wetterdaten: Oktober 2012
Datum Temp. A. Feuchte A. Luftdruck Regen Wind Richtung Taupunkt Windchill Windben
01.10.2012 13,0 C 77 % 1016 hPa 0,0 l/m 0,5 km/h N 9,1 C 13,0 C 1,5 km/h
02.10.2012 13,6 C 71 % 1016 hPa 0,0 l/m 0,0 km/h N 8,0 C 13,6 C 1,0 km/h
03.10.2012 13,0 C 74 % 1014 hPa 0,0 l/m 3,1 km/h N-NO 8,3 C 12,4 C 4,1 km/h
04.10.2012 12,4 C 81 % 1012 hPa 6,2 l/m 1,2 km/h N-NO 9,2 C 12,4 C 2,2 km/h
05.10.2012 13,8 C 76 % 1013 hPa 0,0 l/m 4,9 km/h N-NO 9,5 C 13,2 C 5,9 km/h
06.10.2012 16,7 C 68 % 1012 hPa 0,0 l/m 3,6 km/h N 10,3 C 16,3 C 6,8 km/h
07.10.2012 11,6 C 80 % 1016 hPa 16,1 l/m 4,0 km/h N 8,3 C 11,0 C 4,9 km/h
08.10.2012 8,7 C 74 % 1015 hPa 0,0 l/m 2,8 km/h N-NO 4,0 C 8,7 C 3,8 km/h
09.10.2012 8,8 C 83 % 1010 hPa 0,5 l/m 0,0 km/h N 5,9 C 8,8 C 1,0 km/h
10.10.2012 6,7 C 76 % 1012 hPa 0,0 l/m 0,3 km/h N-NO 2,6 C 6,7 C 1,4 km/h
11.10.2012 8,3 C 72 % 1010 hPa 0,0 l/m 3,6 km/h O-NO 3,3 C 7,4 C 4,6 km/h
12.10.2012 9,8 C 84 % 1009 hPa 6,7 l/m 3,6 km/h NO 7,1 C 9,5 C 4,6 km/h
13.10.2012 8,6 C 79 % 1009 hPa 0,0 l/m 4,5 km/h NO 4,9 C 8,1 C 5,5 km/h
14.10.2012 10,3 C 79 % 1000 hPa 0,5 l/m 8,2 km/h O-NO 6,7 C 9,0 C 9,9 km/h
15.10.2012 8,4 C 78 % 1006 hPa 1,0 l/m 1,7 km/h N 4,9 C 8,4 C 2,7 km/h
16.10.2012 9,4 C 72 % 1010 hPa 0,0 l/m 2,6 km/h N 4,3 C 8,9 C 3,6 km/h
17.10.2012 11,5 C 72 % 1012 hPa 0,0 l/m 8,2 km/h N-NO 6,4 C 10,0 C 9,2 km/h
18.10.2012 11,3 C 76 % 1013 hPa 0,0 l/m 2,6 km/h O 7,0 C 10,9 C 3,6 km/h
19.10.2012 12,0 C 75 % 1013 hPa 0,0 l/m 3,1 km/h O 7,4 C 11,5 C 4,1 km/h
20.10.2012 9,5 C 85 % 1017 hPa 0,0 l/m 0,0 km/h N-NO 7,2 C 9,5 C 1,0 km/h
21.10.2012 9,1 C 86 % 1017 hPa 0,0 l/m 2,7 km/h N-NO 6,8 C 8,3 C 3,7 km/h
22.10.2012 9,1 C 84 % 1020 hPa 0,0 l/m 0,9 km/h N-NO 6,4 C 9,1 C 1,9 km/h
23.10.2012 7,9 C 83 % 1021 hPa 0,0 l/m 4,3 km/h O 5,1 C 7,1 C 5,3 km/h
24.10.2012 7,3 C 84 % 1017 hPa 0,0 l/m 1,2 km/h N-NO 4,7 C 7,3 C 2,2 km/h
25.10.2012 9,4 C 84 % 1012 hPa 0,0 l/m 0,0 km/h N 6,8 C 9,4 C 1,0 km/h
26.10.2012 7,0 C 80 % 1003 hPa 0,0 l/m 6,5 km/h N-NO 3,8 C 4,9 C 7,5 km/h
27.10.2012 0,9 C 86 % 998 hPa 8,3 l/m 8,9 km/h N-NO -1,2 C -1,6 C 9,9 km/h
28.10.2012 0,4 C 82 % 1011 hPa 2,1 l/m 6,7 km/h N-NO -2,3 C -1,9 C 10,1 km/h
29.10.2012 -0,5 C 85 % 1012 hPa 0,0 l/m 5,4 km/h N-NO -2,8 C -2,6 C 6,4 km/h
30.10.2012 4,2 C 85 % 1005 hPa 0,5 l/m 3,3 km/h N-NO 1,8 C 4,2 C 4,3 km/h
31.10.2012 4,3 C 79 % 999 hPa 0,0 l/m 4,4 km/h N-NO 0,8 C 3,2 C 5,4 km/h
Min-Datum 29.10.12 02.10.12 27.10.12 9 Tage 01.10.12 - 29.10.12 31.10.12 01.10.12
Min-Zeit 04:40 15:10 06:20 - 00:00 - 04:40 08:20 00:00
Minimum -3,8 C 45 % 991 hPa - 0,0 km/h - -5,9 C -7,5 C 1,0 km/h
Max-Datum 06.10.12 21.10.12 23.10.12 07.10.12 04.10.12 - 06.10.12 06.10.12 04.10.12
Max-Zeit 14:00 04:10 09:40 07:30 13:50 - 13:50 14:10 13:50
Maximum 22,9 C 88 % 1023 hPa 16,1 l/m 41,0 km/h
N-NO
- 13,8 C 22,9 C 57,8 km/h
N-NO
Durchschnitt 8,9 C 79 % 1011 hPa #42,0 l/m 3,3 km/h N-NO 5,3 C 8,3 C 4,5 km/h

Durchschnitt Minimum Temp.5,0 C
Durchschnitt Maximum Temp.13,5 C